createdAt,value
2022-11-08T00:01:33.416Z,67.88
2022-11-08T00:03:37.557Z,63.80
2022-11-08T00:05:58.955Z,65.85
2022-11-08T00:08:22.545Z,56.25
2022-11-08T00:10:44.466Z,63.83
2022-11-08T00:13:06.230Z,60.85
2022-11-08T00:15:11.825Z,62.30
2022-11-08T00:17:18.626Z,59.47
2022-11-08T00:19:22.712Z,62.95
2022-11-08T00:21:26.810Z,73.13
2022-11-08T00:23:31.065Z,67.10
2022-11-08T00:25:35.145Z,68.80
2022-11-08T00:27:39.581Z,68.57
2022-11-08T00:29:43.707Z,68.43
2022-11-08T00:31:47.834Z,66.07
2022-11-08T00:33:53.337Z,76.03
2022-11-08T00:35:59.999Z,68.07
2022-11-08T00:38:05.551Z,71.32
2022-11-08T00:40:10.700Z,80.15
2022-11-08T00:42:15.335Z,81.47
2022-11-08T00:44:19.468Z,71.50
2022-11-08T00:46:24.059Z,75.88
2022-11-08T00:48:28.100Z,76.13
2022-11-08T00:50:33.903Z,96.35
2022-11-08T00:52:37.963Z,75.70
2022-11-08T00:54:42.294Z,72.00
2022-11-08T00:56:46.762Z,71.97
2022-11-08T00:58:50.865Z,67.93
2022-11-08T01:00:55.122Z,77.57
2022-11-08T01:03:13.453Z,84.40
2022-11-08T01:05:17.663Z,74.20
2022-11-08T01:07:23.151Z,78.07
2022-11-08T01:09:27.231Z,73.13
2022-11-08T01:11:31.462Z,67.97
2022-11-08T01:13:36.684Z,79.43
2022-11-08T01:15:42.716Z,76.35
2022-11-08T01:17:46.937Z,72.55
2022-11-08T01:19:51.017Z,81.18
2022-11-08T01:21:56.077Z,74.00
2022-11-08T01:24:01.746Z,77.55
2022-11-08T01:26:07.508Z,77.55
2022-11-08T01:28:12.067Z,76.93
2022-11-08T01:30:16.806Z,84.80
2022-11-08T01:32:20.920Z,84.18
2022-11-08T01:34:25.134Z,85.20
2022-11-08T01:36:30.519Z,86.97
2022-11-08T01:38:35.027Z,84.22
2022-11-08T01:40:46.007Z,78.70
2022-11-08T01:42:50.180Z,90.38
2022-11-08T01:45:01.819Z,83.07
2022-11-08T01:47:07.312Z,80.28
2022-11-08T01:49:32.492Z,82.57
2022-11-08T01:51:39.663Z,79.80
2022-11-08T01:53:44.247Z,79.40
2022-11-08T01:55:50.168Z,75.45
2022-11-08T01:57:58.445Z,71.80
2022-11-08T02:00:06.408Z,68.50
2022-11-08T02:02:13.754Z,71.75
2022-11-08T02:04:18.785Z,69.45
2022-11-08T02:06:22.883Z,69.00
2022-11-08T02:08:32.810Z,69.07
2022-11-08T02:12:44.720Z,67.53
2022-11-08T02:14:48.814Z,73.90
2022-11-08T02:16:52.931Z,70.25
2022-11-08T02:18:57.081Z,74.45
2022-11-08T02:21:09.928Z,72.55
2022-11-08T02:23:19.662Z,77.43
2022-11-08T02:25:25.435Z,74.90
2022-11-08T02:27:29.513Z,71.85
2022-11-08T02:29:35.387Z,72.65
2022-11-08T02:31:39.428Z,64.97
2022-11-08T02:33:43.964Z,71.55
2022-11-08T02:35:50.615Z,62.78
2022-11-08T02:37:55.250Z,64.72
2022-11-08T02:39:59.484Z,64.53
2022-11-08T02:42:05.125Z,64.05
2022-11-08T02:44:09.266Z,65.93
2022-11-08T02:46:13.535Z,61.17
2022-11-08T02:48:18.884Z,77.13
2022-11-08T02:50:23.217Z,60.85
2022-11-08T02:52:27.492Z,61.55
2022-11-08T02:54:31.676Z,62.33
2022-11-08T02:56:35.776Z,61.90
2022-11-08T02:58:41.277Z,54.13
2022-11-08T03:00:45.662Z,59.25
2022-11-08T03:02:53.160Z,56.28
2022-11-08T03:04:57.384Z,55.50
2022-11-08T03:07:01.456Z,67.50
2022-11-08T03:09:05.785Z,60.33
2022-11-08T03:11:10.046Z,53.85
2022-11-08T03:13:14.166Z,61.42
2022-11-08T03:15:19.668Z,66.18
2022-11-08T03:17:24.925Z,55.40
2022-11-08T03:19:29.016Z,64.18
2022-11-08T03:21:33.267Z,55.25
2022-11-08T03:23:37.522Z,56.95
2022-11-08T03:25:41.684Z,52.20
2022-11-08T03:27:45.796Z,57.85
2022-11-08T03:29:50.309Z,55.13
2022-11-08T03:31:55.788Z,60.90
2022-11-08T03:33:59.984Z,54.42
2022-11-08T03:36:04.245Z,54.42
2022-11-08T03:38:08.316Z,57.47
2022-11-08T03:40:13.521Z,56.45
2022-11-08T03:42:18.098Z,54.40
2022-11-08T03:44:22.229Z,57.45
2022-11-08T03:46:26.438Z,56.47
2022-11-08T03:48:31.953Z,57.88
2022-11-08T03:50:36.175Z,52.40
2022-11-08T03:52:44.020Z,53.40
2022-11-08T03:54:48.079Z,54.00
2022-11-08T03:56:52.110Z,61.70
2022-11-08T03:58:56.457Z,55.28
2022-11-08T04:01:04.997Z,55.63
2022-11-08T04:03:09.304Z,58.28
2022-11-08T04:05:16.200Z,59.92
2022-11-08T04:07:20.446Z,56.03
2022-11-08T04:09:24.511Z,63.17
2022-11-08T04:11:45.946Z,54.10
2022-11-08T04:14:07.554Z,57.35
2022-11-08T04:16:15.307Z,59.40
2022-11-08T04:18:39.744Z,53.13
2022-11-08T04:21:03.945Z,57.38
2022-11-08T04:23:08.262Z,56.38
2022-11-08T04:25:12.624Z,52.97
2022-11-08T04:27:16.670Z,56.90
2022-11-08T04:29:20.835Z,53.92
2022-11-08T04:31:24.927Z,50.72
2022-11-08T04:33:28.181Z,55.10
2022-11-08T04:35:33.238Z,54.42
2022-11-08T04:37:38.857Z,59.90
2022-11-08T04:39:42.979Z,61.90
2022-11-08T04:41:49.992Z,59.28
2022-11-08T04:43:56.193Z,60.55
2022-11-08T04:46:01.955Z,62.35
2022-11-08T04:48:06.321Z,73.00
2022-11-08T04:50:11.408Z,60.50
2022-11-08T04:52:16.755Z,60.88
2022-11-08T04:54:22.475Z,60.25
2022-11-08T04:56:28.679Z,55.78
2022-11-08T04:58:35.750Z,64.15
2022-11-08T05:00:39.862Z,54.20
2022-11-08T05:02:44.257Z,57.55
2022-11-08T05:04:48.520Z,53.10
2022-11-08T05:06:52.887Z,51.90
2022-11-08T05:08:58.682Z,51.95
2022-11-08T05:11:05.823Z,53.72
2022-11-08T05:13:09.934Z,55.83
2022-11-08T05:15:14.289Z,51.90
2022-11-08T05:17:18.709Z,51.80
2022-11-08T05:19:36.602Z,51.92
2022-11-08T05:21:58.062Z,45.97
2022-11-08T05:24:03.488Z,54.40
2022-11-08T05:26:09.421Z,51.80
2022-11-08T05:28:14.169Z,46.15
2022-11-08T05:30:18.478Z,45.17
2022-11-08T05:32:22.706Z,54.25
2022-11-08T05:34:27.089Z,43.92
2022-11-08T05:36:31.280Z,51.80
2022-11-08T05:38:36.367Z,46.75
2022-11-08T05:40:40.712Z,51.88
2022-11-08T05:42:46.262Z,44.20
2022-11-08T05:44:50.370Z,54.80
2022-11-08T05:46:54.588Z,58.13
2022-11-08T05:48:58.797Z,48.47
2022-11-08T05:51:03.227Z,55.25
2022-11-08T05:53:07.515Z,54.40
2022-11-08T05:55:11.714Z,59.55
2022-11-08T05:57:21.134Z,53.50
2022-11-08T05:59:27.572Z,48.50
2022-11-08T06:01:31.896Z,48.42
2022-11-08T06:03:36.367Z,47.05
2022-11-08T06:05:40.551Z,52.30
2022-11-08T06:07:44.637Z,49.03
2022-11-08T06:09:48.738Z,49.35
2022-11-08T06:11:52.888Z,58.03
2022-11-08T06:13:57.517Z,47.97
2022-11-08T06:16:04.039Z,48.25
2022-11-08T06:18:09.727Z,52.70
2022-11-08T06:20:14.200Z,56.30
2022-11-08T06:22:19.026Z,49.15
2022-11-08T06:24:23.229Z,49.63
2022-11-08T06:26:27.288Z,46.17
2022-11-08T06:28:31.877Z,48.03
2022-11-08T06:30:36.243Z,54.78
2022-11-08T06:32:41.891Z,44.03
2022-11-08T06:34:47.241Z,48.55
2022-11-08T06:36:51.289Z,51.13
2022-11-08T06:38:56.342Z,58.20
2022-11-08T06:41:01.168Z,48.22
2022-11-08T06:43:05.334Z,47.20
2022-11-08T06:45:10.869Z,47.30
2022-11-08T06:47:15.373Z,47.15
2022-11-08T06:49:20.982Z,53.33
2022-11-08T06:51:25.026Z,54.20
2022-11-08T06:53:29.157Z,49.95
2022-11-08T06:55:34.495Z,48.53
2022-11-08T06:57:38.885Z,47.83
2022-11-08T06:59:43.109Z,47.22
2022-11-08T07:01:47.476Z,48.67
2022-11-08T07:03:51.775Z,52.35
2022-11-08T07:05:57.194Z,49.03
2022-11-08T07:08:01.936Z,45.63
2022-11-08T07:10:07.265Z,43.13
2022-11-08T07:12:12.065Z,44.90
2022-11-08T07:14:16.225Z,50.05
2022-11-08T07:16:20.330Z,45.95
2022-11-08T07:18:24.486Z,53.60
2022-11-08T07:20:28.672Z,51.90
2022-11-08T07:22:34.286Z,43.40
2022-11-08T07:24:38.347Z,46.45
2022-11-08T07:26:42.601Z,44.22
2022-11-08T07:28:49.485Z,45.40
2022-11-08T07:30:59.258Z,48.50
2022-11-08T07:33:03.639Z,45.70
2022-11-08T07:35:08.798Z,48.35
2022-11-08T07:37:12.893Z,46.83
2022-11-08T07:39:19.265Z,48.75
2022-11-08T07:41:23.359Z,39.00
2022-11-08T07:43:28.793Z,47.65
2022-11-08T07:45:36.653Z,50.45
2022-11-08T07:47:41.094Z,45.33
2022-11-08T07:49:45.374Z,57.67
2022-11-08T07:51:49.567Z,44.83
2022-11-08T07:53:53.754Z,47.97
2022-11-08T07:55:59.431Z,52.75
2022-11-08T07:58:03.543Z,39.28
2022-11-08T08:00:09.442Z,40.92
2022-11-08T08:02:16.584Z,41.20
2022-11-08T08:04:20.887Z,45.47
2022-11-08T08:06:26.483Z,48.70
2022-11-08T08:08:31.236Z,39.63
2022-11-08T08:10:37.488Z,47.05
2022-11-08T08:12:43.119Z,40.33
2022-11-08T08:14:47.301Z,47.33
2022-11-08T08:16:51.582Z,40.20
2022-11-08T08:18:56.800Z,49.28
2022-11-08T08:21:01.190Z,44.63
2022-11-08T08:23:05.900Z,56.13
2022-11-08T08:25:10.920Z,48.00
2022-11-08T08:27:15.566Z,46.00
2022-11-08T08:29:21.227Z,46.88
2022-11-08T08:31:25.353Z,43.95
2022-11-08T08:33:30.099Z,39.28
2022-11-08T08:35:35.948Z,38.25
2022-11-08T08:37:40.175Z,46.58
2022-11-08T08:39:44.286Z,44.80
2022-11-08T08:41:48.364Z,47.85
2022-11-08T08:43:52.651Z,42.17
2022-11-08T08:46:00.442Z,45.40
2022-11-08T08:48:05.434Z,45.42
2022-11-08T08:50:10.334Z,43.80
2022-11-08T08:52:14.638Z,39.13
2022-11-08T08:54:18.707Z,47.65
2022-11-08T08:56:22.935Z,39.42
2022-11-08T08:58:27.042Z,45.78
2022-11-08T09:02:56.842Z,43.53
2022-11-08T09:05:00.983Z,51.90
2022-11-08T09:07:08.040Z,54.30
2022-11-08T09:09:12.401Z,44.90
2022-11-08T09:11:16.705Z,49.30
2022-11-08T09:13:20.967Z,56.53
2022-11-08T09:15:25.279Z,50.47
2022-11-08T09:17:29.757Z,57.47
2022-11-08T09:19:35.408Z,49.53
2022-11-08T09:21:39.545Z,47.25
2022-11-08T09:23:43.891Z,43.13
2022-11-08T09:25:47.991Z,51.97
2022-11-08T09:27:55.054Z,50.65
2022-11-08T09:29:59.643Z,51.78
2022-11-08T09:32:04.198Z,44.03
2022-11-08T09:34:08.432Z,54.70
2022-11-08T09:36:15.589Z,48.15
2022-11-08T09:38:20.087Z,47.88
2022-11-08T09:40:31.542Z,50.33
2022-11-08T09:42:46.650Z,46.95
2022-11-08T09:45:16.928Z,46.40
2022-11-08T09:47:24.916Z,55.45
2022-11-08T09:49:35.266Z,44.70
2022-11-08T09:51:43.456Z,50.08
2022-11-08T09:53:54.034Z,53.42
2022-11-08T09:56:01.266Z,44.05
2022-11-08T09:58:22.696Z,43.80
2022-11-08T10:00:27.519Z,44.35
2022-11-08T10:02:33.687Z,43.50
2022-11-08T10:04:38.943Z,43.20
2022-11-08T10:07:10.241Z,44.70
2022-11-08T10:09:33.788Z,40.90
2022-11-08T10:11:54.776Z,41.42
2022-11-08T10:14:16.209Z,37.95
2022-11-08T10:16:27.613Z,40.38
2022-11-08T10:18:53.302Z,36.25
2022-11-08T10:21:05.006Z,43.38
2022-11-08T10:23:21.823Z,38.50
2022-11-08T10:25:30.898Z,36.47
2022-11-08T10:27:39.681Z,37.53
2022-11-08T10:29:46.519Z,45.40
2022-11-08T10:32:04.860Z,42.47
2022-11-08T10:34:16.899Z,40.70
2022-11-08T10:36:27.452Z,41.08
2022-11-08T10:38:40.870Z,38.47
2022-11-08T10:40:54.508Z,36.33
2022-11-08T10:43:09.637Z,39.65
2022-11-08T10:45:15.496Z,37.53
2022-11-08T10:47:25.368Z,39.15
2022-11-08T10:49:32.783Z,38.13
2022-11-08T10:51:37.528Z,37.83
2022-11-08T10:53:48.946Z,37.42
2022-11-08T10:55:59.628Z,37.67
2022-11-08T10:58:04.634Z,42.08
2022-11-08T11:00:26.277Z,41.55
2022-11-08T11:02:34.127Z,61.75
2022-11-08T11:04:38.781Z,42.70
2022-11-08T11:06:43.193Z,41.70
2022-11-08T11:08:53.372Z,45.60
2022-11-08T11:11:11.781Z,49.72
2022-11-08T11:13:21.681Z,44.13
2022-11-08T11:15:31.864Z,45.72
2022-11-08T11:17:39.096Z,44.85
2022-11-08T11:19:53.734Z,53.95
2022-11-08T11:22:03.274Z,47.47
2022-11-08T11:24:15.431Z,44.17
2022-11-08T11:26:32.290Z,38.60
2022-11-08T11:28:37.353Z,48.35
2022-11-08T11:30:42.343Z,48.83
2022-11-08T11:32:58.184Z,56.00
2022-11-08T11:35:05.550Z,49.67
2022-11-08T11:37:33.661Z,53.08
2022-11-08T11:39:46.111Z,52.53
2022-11-08T11:41:57.213Z,60.53
2022-11-08T11:44:13.365Z,48.15
2022-11-08T11:46:23.982Z,49.03
2022-11-08T11:48:30.841Z,53.13
2022-11-08T11:50:36.944Z,61.58
2022-11-08T11:52:42.211Z,142.75
2022-11-08T11:54:50.918Z,129.85
2022-11-08T11:57:00.337Z,84.00
2022-11-08T11:59:33.857Z,61.78
2022-11-08T12:01:56.071Z,53.17
2022-11-08T12:04:25.199Z,50.33
2022-11-08T12:06:40.454Z,54.65
2022-11-08T12:09:07.819Z,51.03
2022-11-08T12:11:33.208Z,50.25
2022-11-08T12:13:54.279Z,49.65
2022-11-08T12:16:07.576Z,49.38
2022-11-08T12:18:43.101Z,45.47
2022-11-08T12:20:59.637Z,45.45
2022-11-08T12:23:21.711Z,49.20
2022-11-08T12:25:33.413Z,50.72
2022-11-08T12:27:49.973Z,54.47
2022-11-08T12:30:03.470Z,54.17
2022-11-08T12:32:29.056Z,48.72
2022-11-08T12:34:44.458Z,49.92
2022-11-08T12:37:04.977Z,59.97
2022-11-08T12:39:23.761Z,54.28
2022-11-08T12:41:36.639Z,48.40
2022-11-08T12:44:07.032Z,64.75
2022-11-08T12:46:16.599Z,53.72
2022-11-08T12:48:32.083Z,59.55
2022-11-08T12:50:49.443Z,52.25
2022-11-08T12:53:18.077Z,51.22
2022-11-08T12:55:28.239Z,61.03
2022-11-08T12:59:42.920Z,61.22
2022-11-08T13:01:48.458Z,56.00
2022-11-08T13:04:20.499Z,53.40
2022-11-08T13:06:31.783Z,57.58
2022-11-08T13:08:46.354Z,60.08
2022-11-08T13:10:56.899Z,61.17
2022-11-08T13:13:09.991Z,56.95
2022-11-08T13:15:22.290Z,61.40
2022-11-08T13:17:28.117Z,59.67
2022-11-08T13:20:06.347Z,68.63
2022-11-08T13:22:45.542Z,66.47
2022-11-08T13:24:50.191Z,57.97
2022-11-08T13:26:59.199Z,61.45
2022-11-08T13:29:16.022Z,58.47
2022-11-08T13:31:26.892Z,63.13
2022-11-08T13:33:34.396Z,61.45
2022-11-08T13:35:46.997Z,69.88
2022-11-08T13:38:03.589Z,59.63
2022-11-08T13:40:29.856Z,72.68
2022-11-08T13:43:00.447Z,76.70
2022-11-08T13:45:27.306Z,67.75
2022-11-08T13:48:06.640Z,82.55
2022-11-08T13:50:51.009Z,79.15
2022-11-08T13:53:06.116Z,76.25
2022-11-08T13:55:47.487Z,74.28
2022-11-08T13:58:00.922Z,77.72
2022-11-08T14:00:10.973Z,74.38
2022-11-08T14:02:34.257Z,75.18
2022-11-08T14:04:41.648Z,76.03
2022-11-08T14:06:56.911Z,76.38
2022-11-08T14:09:10.662Z,71.53
2022-11-08T14:11:42.008Z,92.32
2022-11-08T14:14:21.510Z,76.90
2022-11-08T14:16:32.933Z,72.20
2022-11-08T14:18:39.361Z,71.10
2022-11-08T14:20:48.333Z,79.95
2022-11-08T14:22:53.150Z,82.80
2022-11-08T14:25:08.191Z,74.20
2022-11-08T14:27:15.243Z,74.45
2022-11-08T14:29:21.778Z,83.45
2022-11-08T14:31:28.362Z,76.00
2022-11-08T14:33:34.633Z,68.10
2022-11-08T14:35:39.742Z,75.00
2022-11-08T14:37:45.819Z,78.15
2022-11-08T14:39:50.267Z,71.63
2022-11-08T14:41:57.889Z,79.80
2022-11-08T14:44:04.042Z,80.60
2022-11-08T14:46:13.445Z,71.80
2022-11-08T14:48:23.495Z,72.05
2022-11-08T14:50:33.922Z,71.80
2022-11-08T14:52:38.380Z,78.38
2022-11-08T14:54:46.816Z,72.95
2022-11-08T14:56:51.148Z,78.47
2022-11-08T14:59:00.186Z,90.32
2022-11-08T15:01:05.879Z,79.30
2022-11-08T15:03:17.474Z,73.72
2022-11-08T15:05:35.486Z,88.60
2022-11-08T15:07:39.984Z,69.95
2022-11-08T15:09:47.341Z,75.50
2022-11-08T15:11:55.334Z,76.70
2022-11-08T15:14:02.916Z,70.55
2022-11-08T15:16:08.780Z,79.40
2022-11-08T15:18:15.784Z,89.53
2022-11-08T15:20:23.387Z,92.32
2022-11-08T15:22:31.501Z,82.38
2022-11-08T15:24:39.438Z,96.03
2022-11-08T15:27:01.989Z,100.25
2022-11-08T15:29:16.832Z,92.38
2022-11-08T15:31:21.682Z,95.55
2022-11-08T15:33:28.320Z,88.93
2022-11-08T15:35:36.779Z,120.50
2022-11-08T15:37:42.744Z,113.35
2022-11-08T15:39:47.432Z,100.53
2022-11-08T15:42:04.552Z,140.75
2022-11-08T15:44:19.032Z,95.60
2022-11-08T15:46:29.416Z,108.28
2022-11-08T15:48:34.098Z,117.78
2022-11-08T15:50:38.612Z,133.70
2022-11-08T15:52:43.350Z,138.80
2022-11-08T15:54:47.792Z,149.10
2022-11-08T15:56:54.086Z,115.95
2022-11-08T15:59:00.110Z,110.25
2022-11-08T16:01:06.832Z,124.72
2022-11-08T16:03:11.667Z,146.38
2022-11-08T16:05:17.981Z,144.68
2022-11-08T16:07:23.654Z,115.60
2022-11-08T16:09:28.052Z,111.05
2022-11-08T16:11:33.475Z,103.85
2022-11-08T16:13:40.145Z,99.60
2022-11-08T16:15:48.212Z,89.28
2022-11-08T16:17:53.231Z,91.05
2022-11-08T16:19:57.482Z,87.82
2022-11-08T16:22:07.387Z,89.95
2022-11-08T16:24:11.710Z,97.28
2022-11-08T16:26:18.494Z,89.47
2022-11-08T16:28:27.768Z,91.35
2022-11-08T16:30:32.617Z,90.50
2022-11-08T16:32:41.022Z,99.00
2022-11-08T16:34:45.238Z,110.72
2022-11-08T16:36:58.285Z,124.13
2022-11-08T16:39:03.724Z,107.55
2022-11-08T16:41:08.427Z,115.35
2022-11-08T16:43:13.446Z,97.97
2022-11-08T16:45:32.346Z,105.22
2022-11-08T16:47:47.101Z,112.28
2022-11-08T16:49:51.703Z,153.18
2022-11-08T16:51:56.159Z,120.85
2022-11-08T16:54:00.603Z,93.80
2022-11-08T16:56:04.834Z,92.90
2022-11-08T16:58:09.071Z,93.93
2022-11-08T17:00:16.077Z,89.22
2022-11-08T17:02:28.760Z,96.13
2022-11-08T17:04:34.239Z,94.78
2022-11-08T17:06:38.616Z,96.03
2022-11-08T17:08:42.764Z,98.78
2022-11-08T17:10:46.944Z,86.43
2022-11-08T17:12:51.663Z,95.60
2022-11-08T17:14:56.908Z,89.45
2022-11-08T17:17:01.010Z,89.93
2022-11-08T17:19:05.815Z,80.18
2022-11-08T17:21:43.148Z,80.40
2022-11-08T17:23:38.105Z,92.97
2022-11-08T17:25:44.664Z,87.53
2022-11-08T17:27:50.741Z,87.63
2022-11-08T17:29:55.077Z,83.30
2022-11-08T17:31:59.322Z,81.28
2022-11-08T17:34:03.495Z,78.10
2022-11-08T17:36:09.318Z,80.95
2022-11-08T17:38:15.010Z,77.18
2022-11-08T17:40:19.281Z,83.88
2022-11-08T17:42:23.670Z,73.50
2022-11-08T17:44:29.517Z,77.43
2022-11-08T17:46:36.142Z,85.53
2022-11-08T17:48:41.475Z,72.55
2022-11-08T17:50:48.622Z,73.80
2022-11-08T17:52:54.917Z,74.18
2022-11-08T17:55:00.661Z,77.18
2022-11-08T17:57:05.222Z,79.63
2022-11-08T17:59:09.619Z,76.38
2022-11-08T18:01:15.288Z,73.45
2022-11-08T18:03:20.000Z,77.88
2022-11-08T18:05:24.737Z,78.13
2022-11-08T18:11:23.699Z,72.95
2022-11-08T18:13:49.138Z,73.60
2022-11-08T18:15:53.888Z,78.45
2022-11-08T18:17:58.155Z,75.78
2022-11-08T18:20:13.905Z,78.65
2022-11-08T18:22:21.111Z,81.50
2022-11-08T18:24:25.444Z,72.95
2022-11-08T18:26:29.969Z,77.28
2022-11-08T18:28:35.776Z,85.68
2022-11-08T18:30:42.934Z,90.20
2022-11-08T18:32:49.732Z,70.72
2022-11-08T18:34:53.911Z,85.72
2022-11-08T18:36:58.468Z,77.88
2022-11-08T18:39:03.905Z,77.95
2022-11-08T18:41:08.501Z,83.57
2022-11-08T18:43:12.844Z,86.03
2022-11-08T18:45:18.858Z,76.15
2022-11-08T18:47:23.141Z,79.70
2022-11-08T18:49:27.351Z,83.55
2022-11-08T18:51:31.534Z,83.32
2022-11-08T18:53:36.157Z,85.80
2022-11-08T18:55:40.513Z,83.47
2022-11-08T18:57:46.191Z,76.15
2022-11-08T18:59:50.625Z,79.55
2022-11-08T19:01:56.389Z,88.40
2022-11-08T19:04:00.700Z,78.97
2022-11-08T19:06:05.270Z,78.20
2022-11-08T19:08:09.394Z,78.47
2022-11-08T19:10:13.805Z,87.03
2022-11-08T19:12:17.982Z,73.78
2022-11-08T19:14:22.199Z,77.13
2022-11-08T19:16:26.396Z,82.35
2022-11-08T19:18:33.362Z,100.78
2022-11-08T19:20:37.881Z,90.13
2022-11-08T19:22:42.142Z,100.53
2022-11-08T19:24:46.566Z,99.30
2022-11-08T19:26:50.731Z,94.50
2022-11-08T19:28:56.388Z,81.72
2022-11-08T19:31:01.005Z,81.18
2022-11-08T19:33:05.317Z,81.30
2022-11-08T19:35:11.522Z,74.10
2022-11-08T19:37:15.715Z,80.40
2022-11-08T19:39:20.239Z,77.25
2022-11-08T19:41:26.518Z,78.90
2022-11-08T19:43:30.787Z,76.93
2022-11-08T19:45:35.771Z,74.95
2022-11-08T19:47:40.568Z,77.35
2022-11-08T19:49:44.734Z,77.57
2022-11-08T19:51:50.602Z,133.25
2022-11-08T19:53:56.654Z,104.40
2022-11-08T19:56:02.252Z,109.10
2022-11-08T19:58:06.608Z,114.82
2022-11-08T20:00:13.293Z,130.10
2022-11-08T20:02:17.620Z,108.00
2022-11-08T20:04:22.204Z,93.68
2022-11-08T20:06:26.458Z,97.15
2022-11-08T20:08:32.766Z,138.35
2022-11-08T20:10:37.407Z,170.75
2022-11-08T20:12:41.626Z,173.50
2022-11-08T20:14:46.255Z,138.80
2022-11-08T20:16:53.415Z,113.05
2022-11-08T20:19:02.181Z,115.10
2022-11-08T20:21:07.020Z,112.93
2022-11-08T20:23:16.135Z,118.07
2022-11-08T20:25:22.272Z,91.87
2022-11-08T20:27:26.386Z,96.45
2022-11-08T20:29:30.523Z,84.03
2022-11-08T20:31:34.982Z,80.95
2022-11-08T20:33:40.670Z,87.82
2022-11-08T20:35:45.973Z,84.70
2022-11-08T20:37:50.172Z,77.50
2022-11-08T20:39:54.276Z,79.97
2022-11-08T20:42:00.801Z,79.80
2022-11-08T20:44:05.266Z,77.72
2022-11-08T20:46:13.210Z,83.85
2022-11-08T20:48:17.756Z,86.22
2022-11-08T20:50:22.156Z,78.40
2022-11-08T20:52:27.076Z,79.53
2022-11-08T20:54:31.309Z,78.53
2022-11-08T20:56:35.501Z,75.25
2022-11-08T20:58:41.415Z,83.03
2022-11-08T21:01:03.100Z,75.35
2022-11-08T21:03:07.273Z,74.05
2022-11-08T21:05:11.511Z,78.10
2022-11-08T21:09:49.716Z,77.95
2022-11-08T21:11:54.730Z,74.00
2022-11-08T21:14:00.280Z,79.65
2022-11-08T21:16:28.037Z,73.03
2022-11-08T21:18:31.200Z,81.82
2022-11-08T21:20:35.346Z,74.80
2022-11-08T21:22:39.460Z,73.68
2022-11-08T21:24:44.471Z,72.80
2022-11-08T21:26:48.559Z,69.10
2022-11-08T21:28:52.839Z,74.38
2022-11-08T21:30:58.421Z,81.60
2022-11-08T21:33:03.213Z,77.15
2022-11-08T21:35:08.094Z,81.05
2022-11-08T21:37:13.172Z,74.65
2022-11-08T21:39:17.550Z,69.82
2022-11-08T21:41:22.088Z,71.78
2022-11-08T21:43:27.106Z,74.05
2022-11-08T21:45:31.565Z,73.28
2022-11-08T21:47:37.678Z,74.18
2022-11-08T21:49:41.938Z,73.65
2022-11-08T21:51:46.099Z,68.72
2022-11-08T21:53:54.665Z,91.45
2022-11-08T21:55:59.928Z,77.50
2022-11-08T21:58:04.771Z,72.63
2022-11-08T22:00:11.222Z,75.40
2022-11-08T22:02:18.689Z,70.97
2022-11-08T22:04:24.474Z,71.70
2022-11-08T22:06:29.312Z,66.57
2022-11-08T22:08:33.527Z,68.45
2022-11-08T22:10:37.925Z,69.75
2022-11-08T22:12:42.687Z,66.80
2022-11-08T22:14:47.024Z,64.10
2022-11-08T22:16:51.233Z,67.88
2022-11-08T22:19:05.503Z,73.57
2022-11-08T22:21:29.123Z,68.28
2022-11-08T22:23:34.257Z,70.88
2022-11-08T22:25:38.710Z,66.50
2022-11-08T22:27:42.911Z,68.38
2022-11-08T22:29:47.249Z,57.38
2022-11-08T22:31:52.173Z,69.47
2022-11-08T22:33:56.595Z,65.28
2022-11-08T22:36:00.915Z,62.35
2022-11-08T22:38:06.666Z,65.78
2022-11-08T22:40:12.616Z,66.82
2022-11-08T22:42:17.345Z,60.63
2022-11-08T22:44:22.093Z,66.45
2022-11-08T22:46:26.513Z,62.38
2022-11-08T22:48:30.941Z,66.70
2022-11-08T22:50:35.242Z,63.72
2022-11-08T22:52:40.249Z,71.15
2022-11-08T22:54:46.299Z,70.10
2022-11-08T22:56:50.929Z,67.28
2022-11-08T22:58:55.109Z,70.43
2022-11-08T23:00:59.809Z,68.90
2022-11-08T23:03:04.026Z,65.13
2022-11-08T23:05:09.287Z,63.38
2022-11-08T23:07:13.487Z,70.60
2022-11-08T23:09:17.727Z,73.85
2022-11-08T23:11:40.715Z,69.97
2022-11-08T23:14:02.327Z,70.00
2022-11-08T23:16:32.476Z,70.93
2022-11-08T23:18:36.768Z,72.88
2022-11-08T23:20:58.674Z,75.43
2022-11-08T23:23:20.764Z,70.55
2022-11-08T23:25:25.298Z,86.63
2022-11-08T23:27:49.057Z,80.75
2022-11-08T23:30:10.901Z,82.75
2022-11-08T23:32:15.144Z,78.30
2022-11-08T23:34:19.228Z,75.95
2022-11-08T23:36:23.428Z,75.43
2022-11-08T23:38:27.560Z,78.97
2022-11-08T23:40:49.508Z,80.18
2022-11-08T23:43:27.580Z,78.13
2022-11-08T23:45:31.761Z,82.07
2022-11-08T23:47:36.045Z,87.10
2022-11-08T23:49:40.446Z,76.55
2022-11-08T23:51:44.714Z,74.18
2022-11-08T23:53:48.832Z,83.18
2022-11-08T23:55:53.307Z,72.28
2022-11-08T23:57:57.473Z,80.47
